createdAt,value
2018-10-09T00:01:04.108Z,99.90
2018-10-09T00:03:31.248Z,99.90
2018-10-09T00:05:58.441Z,99.90
2018-10-09T00:08:25.598Z,99.90
2018-10-09T00:10:52.783Z,99.90
2018-10-09T00:13:19.940Z,99.90
2018-10-09T00:15:47.171Z,99.90
2018-10-09T00:18:14.345Z,99.90
2018-10-09T00:20:41.521Z,99.90
2018-10-09T00:23:08.690Z,99.90
2018-10-09T00:25:35.881Z,99.90
2018-10-09T00:28:03.109Z,99.90
2018-10-09T00:30:30.273Z,99.90
2018-10-09T00:32:57.418Z,99.90
2018-10-09T00:35:24.657Z,99.90
2018-10-09T00:37:51.833Z,99.90
2018-10-09T00:40:19.022Z,99.90
2018-10-09T00:42:46.384Z,99.90
2018-10-09T00:45:13.635Z,99.90
2018-10-09T00:47:40.826Z,99.90
2018-10-09T00:50:08.752Z,99.90
2018-10-09T00:52:35.936Z,99.90
2018-10-09T00:55:03.152Z,99.90
2018-10-09T00:57:30.517Z,99.90
2018-10-09T00:59:57.801Z,99.90
2018-10-09T01:02:24.961Z,99.90
2018-10-09T01:04:52.118Z,99.90
2018-10-09T01:07:19.313Z,99.90
2018-10-09T01:09:46.468Z,99.90
2018-10-09T01:12:13.636Z,99.90
2018-10-09T01:14:40.857Z,99.90
2018-10-09T01:17:08.038Z,99.90
2018-10-09T01:19:35.212Z,99.90
2018-10-09T01:22:02.412Z,99.90
2018-10-09T01:24:29.577Z,99.90
2018-10-09T01:26:56.732Z,99.90
2018-10-09T01:29:23.901Z,99.90
2018-10-09T01:31:51.060Z,99.90
2018-10-09T01:34:18.230Z,99.90
2018-10-09T01:36:45.444Z,99.90
2018-10-09T01:39:12.647Z,99.90
2018-10-09T01:41:39.846Z,99.90
2018-10-09T01:44:07.402Z,99.90
2018-10-09T01:46:34.844Z,99.90
2018-10-09T01:49:02.069Z,99.90
2018-10-09T01:51:29.277Z,99.90
2018-10-09T01:53:56.771Z,99.90
2018-10-09T01:56:23.941Z,99.90
2018-10-09T01:58:51.405Z,99.90
2018-10-09T02:01:18.686Z,99.90
2018-10-09T02:03:45.909Z,99.90
2018-10-09T02:06:13.148Z,99.90
2018-10-09T02:08:40.297Z,99.90
2018-10-09T02:11:07.465Z,99.90
2018-10-09T02:13:34.932Z,99.90
2018-10-09T02:16:02.413Z,99.90
2018-10-09T02:18:29.553Z,99.90
2018-10-09T02:20:56.724Z,99.90
2018-10-09T02:23:23.884Z,99.90
2018-10-09T02:25:51.114Z,99.90
2018-10-09T02:28:18.256Z,99.90
2018-10-09T02:30:45.411Z,99.90
2018-10-09T02:33:12.601Z,99.90
2018-10-09T02:35:39.764Z,99.90
2018-10-09T02:38:06.957Z,99.90
2018-10-09T02:40:34.133Z,99.90
2018-10-09T02:43:01.353Z,99.90
2018-10-09T02:45:28.528Z,99.90
2018-10-09T02:47:55.701Z,99.90
2018-10-09T02:50:22.897Z,99.90
2018-10-09T02:52:50.085Z,99.90
2018-10-09T02:55:17.273Z,99.90
2018-10-09T02:57:44.420Z,99.90
2018-10-09T03:00:11.581Z,99.90
2018-10-09T03:02:38.901Z,99.90
2018-10-09T03:05:06.411Z,99.90
2018-10-09T03:07:33.580Z,99.90
2018-10-09T03:10:00.803Z,99.90
2018-10-09T03:12:28.105Z,99.90
2018-10-09T03:14:55.500Z,99.90
2018-10-09T03:17:22.829Z,99.90
2018-10-09T03:19:50.025Z,99.90
2018-10-09T03:22:17.292Z,99.90
2018-10-09T03:24:44.497Z,99.90
2018-10-09T03:27:11.776Z,99.90
2018-10-09T03:29:39.005Z,99.90
2018-10-09T03:32:06.473Z,99.90
2018-10-09T03:34:33.790Z,99.90
2018-10-09T03:37:00.996Z,99.90
2018-10-09T03:39:28.257Z,99.90
2018-10-09T03:41:55.493Z,99.90
2018-10-09T03:44:22.955Z,99.90
2018-10-09T03:46:50.176Z,99.90
2018-10-09T03:49:17.388Z,99.90
2018-10-09T03:51:44.713Z,99.90
2018-10-09T03:54:11.961Z,99.90
2018-10-09T03:56:39.233Z,99.90
2018-10-09T03:59:06.485Z,99.90
2018-10-09T04:01:33.728Z,99.90
2018-10-09T04:04:00.947Z,99.90
2018-10-09T04:06:28.212Z,99.90
2018-10-09T04:08:55.493Z,99.90
2018-10-09T04:11:22.700Z,99.90
2018-10-09T04:13:49.878Z,99.90
2018-10-09T04:16:17.172Z,99.90
2018-10-09T04:18:44.349Z,99.90
2018-10-09T04:21:11.533Z,99.90
2018-10-09T04:23:39.116Z,99.90
2018-10-09T04:26:06.690Z,99.90
2018-10-09T04:28:33.846Z,99.90
2018-10-09T04:31:01.064Z,99.90
2018-10-09T04:34:58.090Z,99.90
2018-10-09T04:37:25.257Z,99.90
2018-10-09T04:39:52.653Z,99.90
2018-10-09T04:42:19.921Z,99.90
2018-10-09T04:44:47.189Z,99.90
2018-10-09T04:47:14.397Z,99.90
2018-10-09T04:49:41.608Z,99.90
2018-10-09T04:52:08.925Z,99.90
2018-10-09T04:54:36.126Z,99.90
2018-10-09T04:57:03.413Z,99.90
2018-10-09T04:59:30.717Z,99.90
2018-10-09T05:01:57.900Z,99.90
2018-10-09T05:04:25.165Z,99.90
2018-10-09T05:06:52.390Z,99.90
2018-10-09T05:09:19.745Z,99.90
2018-10-09T05:11:46.987Z,99.90
2018-10-09T05:14:14.221Z,99.90
2018-10-09T05:16:41.777Z,99.90
2018-10-09T05:19:08.945Z,99.90
2018-10-09T05:21:36.144Z,99.90
2018-10-09T05:24:03.651Z,99.90
2018-10-09T05:26:30.825Z,99.90
2018-10-09T05:28:58.052Z,99.90
2018-10-09T05:31:25.359Z,99.90
2018-10-09T05:33:52.617Z,99.90
2018-10-09T05:36:19.841Z,99.90
2018-10-09T05:38:47.073Z,99.90
2018-10-09T05:41:14.337Z,99.90
2018-10-09T05:43:41.565Z,99.90
2018-10-09T05:46:08.788Z,99.90
2018-10-09T05:48:35.941Z,99.90
2018-10-09T05:51:03.221Z,99.90
2018-10-09T05:53:30.390Z,99.90
2018-10-09T05:55:57.562Z,99.90
2018-10-09T05:58:24.713Z,99.90
2018-10-09T06:00:51.961Z,99.90
2018-10-09T06:03:19.220Z,99.90
2018-10-09T06:05:46.468Z,99.90
2018-10-09T06:08:13.717Z,99.90
2018-10-09T06:10:41.410Z,99.90
2018-10-09T06:13:08.616Z,99.90
2018-10-09T06:15:35.931Z,99.90
2018-10-09T06:18:03.141Z,99.90
2018-10-09T06:20:30.425Z,99.90
2018-10-09T06:22:57.665Z,99.90
2018-10-09T06:25:24.853Z,99.90
2018-10-09T06:27:52.048Z,99.90
2018-10-09T06:30:19.293Z,99.90
2018-10-09T06:32:46.621Z,99.90
2018-10-09T06:35:13.905Z,99.90
2018-10-09T06:37:41.142Z,99.90
2018-10-09T06:40:08.428Z,99.90
2018-10-09T06:42:35.709Z,99.90
2018-10-09T06:45:03.006Z,99.90
2018-10-09T06:47:30.311Z,99.90
2018-10-09T06:49:57.505Z,99.90
2018-10-09T06:52:25.241Z,99.90
2018-10-09T06:54:52.552Z,99.90
2018-10-09T06:57:19.661Z,99.90
2018-10-09T06:59:46.810Z,99.90
2018-10-09T07:02:14.007Z,99.90
2018-10-09T07:04:41.238Z,99.90
2018-10-09T07:07:08.501Z,99.90
2018-10-09T07:09:35.765Z,99.90
2018-10-09T07:12:03.028Z,99.90
2018-10-09T07:14:30.266Z,99.90
2018-10-09T07:16:57.605Z,99.90
2018-10-09T07:19:24.862Z,99.90
2018-10-09T07:21:52.112Z,99.90
2018-10-09T07:24:19.418Z,99.90
2018-10-09T07:26:46.633Z,99.90
2018-10-09T07:29:13.960Z,99.90
2018-10-09T07:31:41.211Z,99.90
2018-10-09T07:34:08.541Z,99.90
2018-10-09T07:36:35.753Z,99.90
2018-10-09T07:39:04.494Z,99.90
2018-10-09T07:41:31.773Z,99.90
2018-10-09T07:43:59.099Z,99.90
2018-10-09T07:46:28.654Z,99.90
2018-10-09T07:48:55.933Z,99.90
2018-10-09T07:51:23.133Z,99.90
2018-10-09T07:53:50.389Z,99.90
2018-10-09T07:56:17.745Z,99.90
2018-10-09T07:58:45.041Z,99.90
2018-10-09T08:01:12.255Z,99.90
2018-10-09T08:03:39.474Z,99.90
2018-10-09T08:06:06.747Z,99.90
2018-10-09T08:08:33.974Z,99.90
2018-10-09T08:11:01.202Z,99.90
2018-10-09T08:13:28.496Z,99.90
2018-10-09T08:15:56.037Z,99.90
2018-10-09T08:18:24.274Z,99.90
2018-10-09T08:20:51.653Z,99.90
2018-10-09T08:23:18.875Z,99.90
2018-10-09T08:25:46.230Z,99.90
2018-10-09T08:28:13.474Z,99.90
2018-10-09T08:30:40.733Z,99.90
2018-10-09T08:33:07.973Z,99.90
2018-10-09T08:35:35.378Z,99.90
2018-10-09T08:38:02.970Z,99.90
2018-10-09T08:40:30.323Z,99.90
2018-10-09T08:42:57.478Z,99.90
2018-10-09T08:45:24.765Z,99.90
2018-10-09T08:47:52.023Z,99.90
2018-10-09T08:50:19.250Z,99.70
2018-10-09T08:52:46.535Z,99.50
2018-10-09T08:55:13.806Z,99.20
2018-10-09T08:57:41.005Z,99.10
2018-10-09T09:00:08.902Z,99.00
2018-10-09T09:02:36.110Z,99.10
2018-10-09T09:05:03.599Z,98.30
2018-10-09T09:07:30.813Z,97.80
2018-10-09T09:09:58.306Z,98.00
2018-10-09T09:12:25.533Z,97.40
2018-10-09T09:14:52.813Z,97.00
2018-10-09T09:17:20.109Z,97.20
2018-10-09T09:19:47.330Z,97.10
2018-10-09T09:22:14.588Z,96.40
2018-10-09T09:24:41.821Z,96.10
2018-10-09T09:27:09.205Z,95.80
2018-10-09T09:29:36.437Z,95.10
2018-10-09T09:32:03.668Z,95.20
2018-10-09T09:34:31.033Z,94.70
2018-10-09T09:36:58.338Z,94.50
2018-10-09T09:39:25.525Z,94.60
2018-10-09T09:41:52.845Z,93.10
2018-10-09T09:44:20.126Z,93.60
2018-10-09T09:46:47.641Z,92.70
2018-10-09T09:49:14.853Z,93.20
2018-10-09T09:51:42.169Z,92.60
2018-10-09T09:54:09.493Z,91.50
2018-10-09T09:56:36.745Z,91.40
2018-10-09T09:59:04.067Z,91.30
2018-10-09T10:01:37.220Z,90.20
2018-10-09T10:04:04.518Z,90.60
2018-10-09T10:06:31.884Z,91.10
2018-10-09T10:08:59.729Z,90.70
2018-10-09T10:11:27.039Z,88.80
2018-10-09T10:13:54.250Z,90.30
2018-10-09T10:16:21.661Z,87.20
2018-10-09T10:18:48.930Z,88.30
2018-10-09T10:21:16.459Z,89.10
2018-10-09T10:23:43.710Z,87.40
2018-10-09T10:26:10.932Z,87.20
2018-10-09T10:28:38.222Z,86.80
2018-10-09T10:31:05.527Z,86.80
2018-10-09T10:33:32.770Z,87.10
2018-10-09T10:36:00.069Z,86.00
2018-10-09T10:38:27.481Z,87.00
2018-10-09T10:40:54.726Z,86.30
2018-10-09T10:43:22.005Z,84.10
2018-10-09T10:45:49.313Z,84.70
2018-10-09T10:48:16.639Z,83.70
2018-10-09T10:50:43.837Z,81.80
2018-10-09T10:53:11.226Z,82.00
2018-10-09T10:55:38.840Z,82.00
2018-10-09T10:58:06.544Z,81.00
2018-10-09T11:00:33.783Z,79.70
2018-10-09T11:03:01.178Z,81.60
2018-10-09T11:05:28.532Z,81.20
2018-10-09T11:07:55.771Z,80.40
2018-10-09T11:10:22.967Z,80.50
2018-10-09T11:12:50.342Z,80.40
2018-10-09T11:15:17.638Z,80.90
2018-10-09T11:17:45.361Z,81.80
2018-10-09T11:20:12.614Z,78.90
2018-10-09T11:22:39.887Z,77.90
2018-10-09T11:25:07.150Z,76.80
2018-10-09T11:27:34.393Z,77.40
2018-10-09T11:30:01.650Z,75.80
2018-10-09T11:32:30.053Z,76.90
2018-10-09T11:34:57.342Z,76.90
2018-10-09T11:37:24.623Z,75.80
2018-10-09T11:39:51.845Z,76.40
2018-10-09T11:42:19.150Z,76.60
2018-10-09T11:44:46.494Z,76.00
2018-10-09T11:47:13.745Z,75.00
2018-10-09T11:49:40.990Z,75.00
2018-10-09T11:52:08.227Z,75.40
2018-10-09T11:54:35.826Z,75.50
2018-10-09T11:57:03.071Z,75.00
2018-10-09T11:59:30.294Z,74.60
2018-10-09T12:01:57.578Z,72.90
2018-10-09T12:04:24.817Z,74.00
2018-10-09T12:06:52.106Z,74.10
2018-10-09T12:09:19.285Z,75.40
2018-10-09T12:11:46.562Z,75.20
2018-10-09T12:14:13.906Z,74.50
2018-10-09T12:16:41.214Z,74.40
2018-10-09T12:19:08.586Z,73.10
2018-10-09T12:21:36.074Z,72.50
2018-10-09T12:24:03.245Z,69.10
2018-10-09T12:26:30.560Z,64.30
2018-10-09T12:28:57.838Z,59.50
2018-10-09T12:31:25.221Z,56.90
2018-10-09T12:33:52.548Z,54.90
2018-10-09T12:36:19.786Z,51.10
2018-10-09T12:38:47.261Z,48.50
2018-10-09T12:41:14.494Z,45.80
2018-10-09T12:43:41.898Z,43.20
2018-10-09T12:46:09.148Z,42.30
2018-10-09T12:48:36.402Z,44.80
2018-10-09T12:51:03.633Z,44.90
2018-10-09T12:53:30.954Z,45.30
2018-10-09T12:55:58.230Z,43.90
2018-10-09T12:58:25.485Z,42.70
2018-10-09T13:00:52.899Z,42.00
2018-10-09T13:03:20.156Z,42.60
2018-10-09T13:05:47.421Z,42.80
2018-10-09T13:08:14.681Z,43.10
2018-10-09T13:10:41.997Z,43.90
2018-10-09T13:13:09.330Z,44.20
2018-10-09T13:15:36.571Z,44.30
2018-10-09T13:18:03.880Z,44.20
2018-10-09T13:20:31.058Z,45.10
2018-10-09T13:22:58.338Z,44.10
2018-10-09T13:25:25.581Z,44.10
2018-10-09T13:27:52.871Z,44.70
2018-10-09T13:30:20.074Z,44.90
2018-10-09T13:32:47.346Z,45.70
2018-10-09T13:35:14.590Z,45.90
2018-10-09T13:37:41.916Z,46.10
2018-10-09T13:40:09.199Z,46.30
2018-10-09T13:42:36.481Z,46.30
2018-10-09T13:45:03.910Z,44.20
2018-10-09T13:47:31.334Z,44.50
2018-10-09T13:49:58.518Z,44.00
2018-10-09T13:52:25.782Z,43.00
2018-10-09T13:54:53.022Z,43.10
2018-10-09T13:57:20.370Z,44.10
2018-10-09T13:59:47.651Z,44.00
2018-10-09T14:02:14.937Z,44.20
2018-10-09T14:04:42.162Z,43.90
2018-10-09T14:07:09.537Z,43.20
2018-10-09T14:09:36.730Z,43.20
2018-10-09T14:12:03.882Z,44.50
2018-10-09T14:14:31.266Z,46.40
2018-10-09T14:16:58.490Z,47.30
2018-10-09T14:19:25.813Z,48.50
2018-10-09T14:21:52.973Z,48.60
2018-10-09T14:24:20.334Z,48.60
2018-10-09T14:26:47.630Z,48.90
2018-10-09T14:29:14.834Z,48.20
2018-10-09T14:31:42.199Z,48.30
2018-10-09T14:34:09.443Z,48.70
2018-10-09T14:36:36.705Z,48.40
2018-10-09T14:39:05.642Z,48.60
2018-10-09T14:41:32.938Z,49.30
2018-10-09T14:44:00.236Z,49.80
2018-10-09T14:46:27.530Z,50.00
2018-10-09T14:48:54.806Z,48.50
2018-10-09T14:51:22.094Z,48.50
2018-10-09T14:53:49.334Z,48.20
2018-10-09T14:56:16.558Z,48.30
2018-10-09T14:58:43.809Z,47.80
2018-10-09T15:01:11.105Z,47.40
2018-10-09T15:03:38.391Z,47.50
2018-10-09T15:06:05.981Z,47.40
2018-10-09T15:08:33.697Z,47.70
2018-10-09T15:11:00.930Z,46.90
2018-10-09T15:13:28.296Z,46.80
2018-10-09T15:15:55.496Z,47.00
2018-10-09T15:18:22.794Z,47.50
2018-10-09T15:20:50.027Z,47.90
2018-10-09T15:23:17.321Z,49.90
2018-10-09T15:25:44.562Z,51.00
2018-10-09T15:28:11.797Z,51.60
2018-10-09T15:30:39.058Z,52.10
2018-10-09T15:33:06.561Z,52.30
2018-10-09T15:35:33.878Z,51.90
2018-10-09T15:38:01.085Z,52.30
2018-10-09T15:40:28.372Z,53.00
2018-10-09T15:42:55.646Z,55.30
2018-10-09T15:45:22.918Z,56.40
2018-10-09T15:47:50.212Z,59.30
2018-10-09T15:50:17.529Z,60.60
2018-10-09T15:52:44.722Z,64.30
2018-10-09T15:55:12.017Z,66.50
2018-10-09T15:57:39.225Z,67.70
2018-10-09T16:00:06.541Z,70.50
2018-10-09T16:02:33.858Z,72.40
2018-10-09T16:05:01.096Z,73.80
2018-10-09T16:07:28.497Z,74.90
2018-10-09T16:09:55.726Z,76.40
2018-10-09T16:12:23.379Z,77.90
2018-10-09T16:14:50.607Z,79.20
2018-10-09T16:17:17.986Z,81.00
2018-10-09T16:19:45.284Z,81.80
2018-10-09T16:22:12.465Z,82.90
2018-10-09T16:24:39.717Z,83.40
2018-10-09T16:27:06.977Z,84.20
2018-10-09T16:29:34.261Z,84.70
2018-10-09T16:32:01.469Z,85.60
2018-10-09T16:34:28.725Z,86.70
2018-10-09T16:36:56.049Z,87.40
2018-10-09T16:39:23.201Z,89.00
2018-10-09T16:41:50.513Z,90.20
2018-10-09T16:44:17.814Z,90.60
2018-10-09T16:46:45.085Z,90.90
2018-10-09T16:49:12.427Z,91.10
2018-10-09T16:51:39.672Z,91.60
2018-10-09T16:54:07.202Z,91.90
2018-10-09T16:56:34.430Z,92.10
2018-10-09T16:59:02.999Z,92.00
2018-10-09T17:01:30.262Z,92.40
2018-10-09T17:03:57.509Z,92.60
2018-10-09T17:06:24.830Z,93.00
2018-10-09T17:08:52.113Z,93.20
2018-10-09T17:11:19.363Z,93.30
2018-10-09T17:13:46.600Z,93.60
2018-10-09T17:16:13.842Z,93.80
2018-10-09T17:18:41.209Z,94.10
2018-10-09T17:21:08.497Z,94.40
2018-10-09T17:23:35.863Z,94.90
2018-10-09T17:26:03.086Z,95.10
2018-10-09T17:28:30.389Z,95.20
2018-10-09T17:30:57.610Z,95.40
2018-10-09T17:33:24.894Z,95.60
2018-10-09T17:35:52.577Z,95.90
2018-10-09T17:38:20.127Z,96.00
2018-10-09T17:40:47.554Z,96.50
2018-10-09T17:43:14.978Z,96.30
2018-10-09T17:45:42.274Z,96.40
2018-10-09T17:48:10.372Z,96.60
2018-10-09T17:50:37.583Z,96.60
2018-10-09T17:53:05.251Z,96.70
2018-10-09T17:55:32.599Z,97.00
2018-10-09T17:57:59.902Z,97.40
2018-10-09T18:00:27.138Z,97.50
2018-10-09T18:02:54.461Z,97.70
2018-10-09T18:05:21.735Z,97.70
2018-10-09T18:07:49.211Z,97.60
2018-10-09T18:10:16.430Z,97.50
2018-10-09T18:12:43.595Z,97.50
2018-10-09T18:15:13.205Z,97.70
2018-10-09T18:17:40.464Z,97.50
2018-10-09T18:20:07.662Z,97.60
2018-10-09T18:22:34.937Z,97.70
2018-10-09T18:25:02.123Z,97.70
2018-10-09T18:27:29.281Z,97.50
2018-10-09T18:29:56.609Z,97.80
2018-10-09T18:32:24.239Z,98.00
2018-10-09T18:34:51.381Z,97.90
2018-10-09T18:37:18.562Z,97.90
2018-10-09T18:39:45.809Z,98.30
2018-10-09T18:42:13.045Z,98.50
2018-10-09T18:44:40.210Z,98.90
2018-10-09T18:47:12.007Z,99.30
2018-10-09T18:49:39.202Z,99.50
2018-10-09T18:52:06.443Z,99.50
2018-10-09T18:54:33.685Z,99.50
2018-10-09T18:57:00.885Z,99.90
2018-10-09T18:59:28.050Z,99.90
2018-10-09T19:01:55.174Z,99.90
2018-10-09T19:04:22.334Z,99.70
2018-10-09T19:06:49.666Z,99.90
2018-10-09T19:09:16.821Z,99.90
2018-10-09T19:11:44.002Z,99.80
2018-10-09T19:14:11.156Z,99.90
2018-10-09T19:16:38.317Z,99.90
2018-10-09T19:19:05.558Z,99.90
2018-10-09T19:21:32.718Z,99.90
2018-10-09T19:23:59.960Z,99.90
2018-10-09T19:26:27.125Z,99.90
2018-10-09T19:28:54.332Z,99.90
2018-10-09T19:31:21.497Z,99.90
2018-10-09T19:33:48.705Z,99.90
2018-10-09T19:36:15.866Z,99.90
2018-10-09T19:38:43.163Z,99.90
2018-10-09T19:41:10.334Z,99.90
2018-10-09T19:43:37.524Z,99.90
2018-10-09T19:46:04.730Z,99.90
2018-10-09T19:48:31.925Z,99.90
2018-10-09T19:50:59.325Z,99.90
2018-10-09T19:53:26.441Z,99.90
2018-10-09T19:55:53.622Z,99.90
2018-10-09T19:58:20.789Z,99.90
2018-10-09T20:00:47.995Z,99.90
2018-10-09T20:03:15.425Z,99.90
2018-10-09T20:05:42.626Z,99.90
2018-10-09T20:08:10.041Z,99.90
2018-10-09T20:10:37.286Z,99.90
2018-10-09T20:13:04.706Z,99.90
2018-10-09T20:15:31.931Z,99.90
2018-10-09T20:17:59.119Z,99.90
2018-10-09T20:20:26.341Z,99.90
2018-10-09T20:22:53.510Z,99.90
2018-10-09T20:25:20.704Z,99.90
2018-10-09T20:27:48.882Z,99.90
2018-10-09T20:30:16.026Z,99.90
2018-10-09T20:32:43.193Z,99.90
2018-10-09T20:35:10.358Z,99.90
2018-10-09T20:37:37.558Z,99.90
2018-10-09T20:40:04.733Z,99.90
2018-10-09T20:42:31.971Z,99.90
2018-10-09T20:44:59.174Z,99.90
2018-10-09T20:47:32.079Z,99.90
2018-10-09T20:49:59.251Z,99.90
2018-10-09T20:52:26.430Z,99.90
2018-10-09T20:54:53.910Z,99.90
2018-10-09T20:57:21.286Z,99.90
2018-10-09T20:59:48.493Z,99.90
2018-10-09T21:02:15.645Z,99.90
2018-10-09T21:04:42.858Z,99.90
2018-10-09T21:07:10.029Z,99.90
2018-10-09T21:09:37.260Z,99.90
2018-10-09T21:12:04.459Z,99.90
2018-10-09T21:14:31.622Z,99.90
2018-10-09T21:16:58.808Z,99.90
2018-10-09T21:19:26.067Z,99.90
2018-10-09T21:21:53.326Z,99.90
2018-10-09T21:24:20.520Z,99.90
2018-10-09T21:26:47.710Z,99.90
2018-10-09T21:29:15.928Z,99.90
2018-10-09T21:31:43.151Z,99.90
2018-10-09T21:34:10.331Z,99.90
2018-10-09T21:36:37.600Z,99.90
2018-10-09T21:39:06.338Z,99.90
2018-10-09T21:41:33.555Z,99.90
2018-10-09T21:44:00.976Z,99.90
2018-10-09T21:46:28.121Z,99.90
2018-10-09T21:48:55.302Z,99.90
2018-10-09T21:51:22.558Z,99.90
2018-10-09T21:53:49.782Z,99.90
2018-10-09T21:56:16.990Z,99.90
2018-10-09T21:58:44.202Z,99.90
2018-10-09T22:01:12.407Z,99.90
2018-10-09T22:03:40.262Z,99.90
2018-10-09T22:06:07.947Z,99.90
2018-10-09T22:08:35.185Z,99.90
2018-10-09T22:11:02.398Z,99.90
2018-10-09T22:13:29.567Z,99.90
2018-10-09T22:15:56.826Z,99.90
2018-10-09T22:18:24.187Z,99.90
2018-10-09T22:20:51.401Z,99.90
2018-10-09T22:23:18.657Z,99.90
2018-10-09T22:25:46.054Z,99.90
2018-10-09T22:28:13.300Z,99.90
2018-10-09T22:30:41.170Z,99.90
2018-10-09T22:33:08.418Z,99.90
2018-10-09T22:35:35.706Z,99.90
2018-10-09T22:38:02.937Z,99.90
2018-10-09T22:40:30.077Z,99.90
2018-10-09T22:42:57.276Z,99.90
2018-10-09T22:45:24.454Z,99.90
2018-10-09T22:47:51.710Z,99.90
2018-10-09T22:50:19.137Z,99.90
2018-10-09T22:52:46.365Z,99.90
2018-10-09T22:55:13.969Z,99.90
2018-10-09T22:57:41.247Z,99.90
2018-10-09T23:00:08.512Z,99.90
2018-10-09T23:02:35.713Z,99.90
2018-10-09T23:05:03.130Z,99.90
2018-10-09T23:07:30.652Z,99.90
2018-10-09T23:09:57.918Z,99.90
2018-10-09T23:12:25.178Z,99.90
2018-10-09T23:14:52.441Z,99.90
2018-10-09T23:17:19.678Z,99.90
2018-10-09T23:19:46.954Z,99.90
2018-10-09T23:22:14.197Z,99.90
2018-10-09T23:24:41.397Z,99.90
2018-10-09T23:27:08.621Z,99.90
2018-10-09T23:29:35.996Z,99.90
2018-10-09T23:32:03.270Z,99.90
2018-10-09T23:34:30.533Z,99.90
2018-10-09T23:36:57.723Z,99.90
2018-10-09T23:39:24.986Z,99.90
2018-10-09T23:41:52.209Z,99.90
2018-10-09T23:44:19.853Z,99.90
2018-10-09T23:46:47.452Z,99.90
2018-10-09T23:49:14.678Z,99.90
2018-10-09T23:51:41.942Z,99.90
2018-10-09T23:54:09.348Z,99.90
2018-10-09T23:56:36.634Z,99.90
2018-10-09T23:59:04.063Z,99.90
